ADDS METAR Data INFO
IDs: Format: Raw Decoded Include TAF

Data at: 1002 UTC 12 Dec 2017

KHZY 120953Z AUTO 31005KT 1 1/4SM -SN BR OVC004 M01/M01 A2956 RMK AO2 SLP020 P0000 T10061011
KHZY 120924Z AUTO 27005KT 1 1/2SM -SN BR OVC005 M01/M02 A2956 RMK AO2 P0000 T10111017
KHZY 120914Z AUTO 26003KT 1SM -SN BR BKN004 OVC010 M02/M02 A2956 RMK AO2 P0000 T10171017
KHZY 120907Z AUTO 26003KT 1SM -SN BR BKN006 OVC010 M02/M02 A2956 RMK AO2 P0000 T10171017
KHZY 120853Z AUTO 25003KT 1 1/2SM -SN BR OVC007 M02/M02 A2956 RMK AO2 SLP020 P0000 60000 T10171017 57009
KHZY 120832Z AUTO 24004KT 1 1/4SM -SN BR BKN009 OVC015 M02/M02 A2957 RMK AO2 P0000 T10171022
KHZY 120824Z AUTO 24003KT 1SM -SN BR SCT009 BKN015 OVC020 M02/M02 A2957 RMK AO2 P0000 T10171022
KHZY 120817Z AUTO 00000KT 1 1/4SM -SN BR SCT011 OVC018 M02/M02 A2957 RMK AO2 P0000 T10171022
KHZY 120802Z AUTO 00000KT 1SM -SN BR OVC015 M02/M02 A2958 RMK AO2 P0000 T10171022
KHZY 120753Z AUTO 00000KT 1 1/4SM -SN BR BKN015 OVC020 M02/M02 A2958 RMK AO2 SLP024 P0000 T10171022
KHZY 120751Z AUTO 32003KT 1 1/2SM -SN BR BKN015 OVC022 M02/M03 A2958 RMK AO2 P0000
KHZY 120726Z AUTO 00000KT 2 1/2SM -SN BR SCT010 OVC021 M02/M02 A2958 RMK AO2 P0000 T10171022
KHZY 120708Z AUTO 00000KT 1 1/4SM -SN BR BKN010 BKN015 OVC024 M02/M02 A2958 RMK AO2 P0000 T10171022
KHZY 120653Z AUTO 00000KT 1 1/4SM -SN BR FEW015 OVC022 M02/M03 A2959 RMK AO2 SNB28 SLP030 P0000 T10171028
KHZY 120646Z AUTO 00000KT 1 1/2SM -SN BR SCT015 BKN020 OVC029 M01/M03 A2959 RMK AO2 SNB28 P0000 T10111033
KHZY 120635Z AUTO 00000KT 2 1/2SM -SN BR BKN022 BKN029 OVC045 M01/M03 A2960 RMK AO2 SNB28 P0000 T10111033
KHZY 120553Z AUTO 00000KT 8SM OVC045 M01/M03 A2961 RMK AO2 SLP036 60000 T10111033 11006 21022 56033
KHZY 120453Z AUTO 00000KT 9SM OVC050 M01/M03 A2964 RMK AO2 SLP046 T10111033 410061028
KHZY 120353Z AUTO 14003KT 10SM BKN055 OVC070 M01/M04 A2967 RMK AO2 SLP057 T10111039
KHZY 120253Z AUTO 17005KT 10SM BKN070 M01/M03 A2971 RMK AO2 SLP071 60000 T10111033 56028
KHZY 120153Z AUTO 17004KT 9SM BKN041 OVC070 M01/M03 A2974 RMK AO2 SLP080 T10111033
KHZY 120053Z AUTO 15005KT 10SM OVC065 M02/M03 A2977 RMK AO2 SNE2357 SLP089 P0000 T10171033
KHZY 112353Z AUTO 15006KT 5SM -SN BR SCT025 OVC060 M02/M04 A2980 RMK AO2 SLP101 P0000 60000 T10221039 11011 21022 58031
KHZY 112341Z AUTO 15004KT 2SM -SN BR OVC028 M02/M04 A2981 RMK AO2 P0000 T10221039
KHZY 112330Z AUTO 16005KT 2 1/2SM -SN BR OVC032 M02/M04 A2981 RMK AO2 P0000 T10171039
KHZY 112253Z AUTO 14003KT 4SM -SN BR FEW033 BKN046 OVC070 M02/M04 A2984 RMK AO2 SNB28 SLP112 P0000 T10221044
KHZY 112153Z AUTO 17007KT 10SM OVC040 M02/M05 A2986 RMK AO2 SLP120 T10171050
KHZY 112053Z AUTO 15005KT 7SM OVC038 M02/M05 A2989 RMK AO2 SNE1957 SLP132 P0000 60000 T10171050 58017
KHZY 111953Z AUTO 20006KT 5SM -SN BKN045 OVC060 M02/M05 A2991 RMK AO2 SLP139 P0000 T10171050
KHZY 111901Z AUTO 23007KT 5SM -SN OVC045 M02/M05 A2994 RMK AO2 P0000 T10221050
KHZY 111853Z AUTO 21006KT 2 1/2SM -SN FEW036 BKN045 OVC050 M02/M05 A2994 RMK AO2 SNB19 SLP149 P0000 T10221050
KHZY 111841Z AUTO 21005KT 2 1/2SM -SN FEW030 BKN034 OVC049 M02/M05 A2993 RMK AO2 SNB19 P0000 T10221050
KHZY 111830Z AUTO 21007KT 1 1/4SM -SN BKN030 OVC035 M02/M06 A2994 RMK AO2 SNB19 P0000 T10221056
KHZY 111822Z AUTO 24010KT 2 1/2SM -SN BKN028 BKN032 OVC039 M02/M06 A2994 RMK AO2 SNB19 P0000 T10171061
KHZY 111815Z AUTO 24007KT 9SM BKN032 OVC039 M01/M07 A2994 RMK AO2 T10111067
KHZY 111753Z AUTO 21007KT 10SM OVC028 M01/M07 A2994 RMK AO2 SLP149 T10111067 11011 21022 58024
KHZY 111738Z AUTO 21007KT 10SM BKN026 OVC035 M01/M06 A2995 RMK AO2 T10111061
KHZY 111653Z AUTO 24010KT 10SM FEW027 OVC033 M01/M06 A2998 RMK AO2 SLP162 T10111061
KHZY 111553Z AUTO 21005KT 10SM OVC030 M02/M06 A3001 RMK AO2 SLP172 T10171056
KHZY 111453Z AUTO 21003KT 10SM OVC027 M02/M06 A3001 RMK AO2 SLP174 T10171061 58002
KHZY 111420Z AUTO 23004KT 10SM OVC028 M02/M06 A3003 RMK AO2 T10221061
KHZY 111353Z AUTO 24004KT 10SM OVC031 M02/M07 A3003 RMK AO2 SLP179 T10221067
KHZY 111302Z AUTO 26003KT 10SM OVC031 M02/M06 A3002 RMK AO2 T10221061
KHZY 111253Z AUTO 27004KT 10SM OVC029 M02/M07 A3002 RMK AO2 SLP178 T10221067
KHZY 111234Z AUTO 26009KT 10SM OVC029 M02/M07 A3002 RMK AO2 T10221067
KHZY 111153Z AUTO 25006KT 10SM OVC031 M02/M06 A3002 RMK AO2 SLP177 60000 T10221061 11011 21028 53011
KHZY 111053Z AUTO VRB06KT 10SM FEW026 OVC032 M02/M06 A3000 RMK AO2 SLP169 T10171061
KHZY 111048Z AUTO 27005KT 10SM OVC030 M02/M06 A3000 RMK AO2
KHZY 110953Z AUTO 29005KT 10SM OVC027 M02/M06 A2999 RMK AO2 SLP164 T10171056
KHZY 110853Z AUTO 32008KT 10SM OVC023 M02/M05 A2997 RMK AO2 SLP159 60000 T10171050 51014
KHZY 110753Z AUTO 31007KT 10SM OVC020 M01/M04 A2997 RMK AO2 SNE0659 SLP157 P0000 T10111044
KHZY 110653Z AUTO 26003KT 6SM -SN BR OVC015 M02/M04 A2995 RMK AO2 SLP152 P0000 T10221044
KHZY 110625Z AUTO 27004KT 7SM -SN OVC017 M03/M04 A2994 RMK AO2 P0000 T10281044
KHZY 110615Z AUTO 26005KT 2SM -SN BR OVC018 M03/M04 A2994 RMK AO2 P0000 T10281044
KHZY 110608Z AUTO 24006KT 3SM -SN BR OVC018 M03/M04 A2994 RMK AO2 P0000 T10281044
KHZY 110602Z AUTO 24006KT 1 3/4SM -SN BR OVC018 M03/M04 A2993 RMK AO2 P0000 T10281044
KHZY 110553Z AUTO 24006KT 2 1/2SM -SN BR OVC020 M03/M04 A2993 RMK AO2 SNE30B47 SLP145 P0000 60000 T10281044 11022 21028 56004
KHZY 110516Z AUTO 22007KT 3SM -SN BR OVC021 M03/M04 A2993 RMK AO2 P0000 T10281044
KHZY 110508Z AUTO 23006KT 1 3/4SM -SN BR OVC021 M03/M04 A2993 RMK AO2 P0000 T10281044
KHZY 110453Z AUTO 23009KT 2 1/2SM -SN BR FEW015 OVC023 M03/M04 A2993 RMK AO2 SLP146 P0000 T10281044 410111028
KHZY 110446Z AUTO 22008KT 2SM -SN BR OVC021 M03/M04 A2993 RMK AO2 P0000 T10281044
KHZY 110434Z AUTO 22007KT 1 1/2SM -SN BR BKN015 OVC025 M03/M05 A2993 RMK AO2 P0000 T10281050
KHZY 110426Z AUTO 23006KT 2SM -SN BR BKN016 OVC027 M03/M04 A2993 RMK AO2 P0000 T10281044
KHZY 110419Z AUTO 23006KT 1SM -SN BR VV015 M03/M04 A2993 RMK AO2 P0000 T10281044
KHZY 110413Z AUTO 24007KT 1 1/4SM -SN BR BKN014 OVC027 M03/M05 A2994 RMK AO2 P0000 T10281050
KHZY 110403Z AUTO 24008KT 1SM -SN VV017 M03/M06 A2993 RMK AO2 P0000 T10281056
KHZY 110353Z AUTO 24010KT 2SM -SN BKN023 OVC037 M02/M06 A2994 RMK AO2 SNB09E11B24 SLP148 P0000 T10221056
KHZY 110346Z AUTO 23010KT 2 1/2SM -SN BKN025 OVC037 M02/M06 A2994 RMK AO2 SNB09E11B24 P0000 T10221061
KHZY 110316Z AUTO 22009KT 8SM OVC032 M02/M07 A2993 RMK AO2 SNB09E11 P0000 T10221067
KHZY 110253Z AUTO 22008KT 10SM OVC028 M02/M07 A2994 RMK AO2 SLP151 60000 T10221067 58004
KHZY 110219Z AUTO 21009KT 10SM OVC029 M03/M07 A2994 RMK AO2 T10281067
KHZY 110153Z AUTO 22007KT 10SM OVC032 M03/M07 A2995 RMK AO2 SLP152 T10281067
KHZY 110053Z AUTO 22010KT 10SM OVC039 M03/M07 A2995 RMK AO2 SNE2359 SLP154 P0000 T10281072
KHZY 102353Z AUTO 25015G19KT 8SM -SN BKN044 BKN065 OVC080 M03/M07 A2995 RMK AO2 SNB48 SLP154 P0000 60000 T10281072 11011 21028 51018
KHZY 102253Z AUTO 24009KT 10SM OVC060 M02/M09 A2994 RMK AO2 SLP150 T10221089